Terminal Aerodrome Forecast
Issued by NWS Grand Forks, ND

Home | Current Version | Previous Version | Graphics & Text | Print | Product List | Glossary On
Versions: 1 2 3 4 5 6 7 8 9 10 11 12 13 14 15 16 17 18 19 20
000
FTUS43 KFGF 142013 AAA
TAFGFK
TAF AMD
KGFK 142013Z 1420/1518 33022G32KT 2SM BLSN BKN025 OVC035
      TEMPO 1420/1422 1/2SM -SN BLSN OVC020
     FM142300 34019G29KT 3SM BLSN BKN030
     FM150200 34018KT P6SM BKN035
     FM150400 34017KT P6SM BKN020
     FM151100 34016G26KT 6SM BLSN BKN020=

USA.gov is the U.S. government's official web portal to all federal, state and local government web resources and services.